Terminal Aerodrome Forecast
Issued by NWS Twin Cities, MN

Home | Current Version | Previous Version | Graphics & Text | Print | Product List | Glossary On
Versions: 1 2 3 4 5 6 7 8 9 10 11 12 13 14 15 16 17 18 19 20 21 22 23 24 25 26 27 28 29 30 31
000
FTUS43 KMPX 280906 AAB
TAFMSP
TAF AMD
KMSP 280906Z 2809/2912 34003KT 5SM BR BKN005 OVC150
     FM281200 03004KT 4SM -SHRA BR SCT007 OVC012
     FM281800 18006KT P6SM VCSH OVC025
     FM282000 21006KT P6SM VCSH SCT025 BKN040 PROB30 2820/2824 5SM
      -SHRA BKN025
     FM290000 27007KT P6SM VCSH OVC025=

USA.gov is the U.S. government's official web portal to all federal, state and local government web resources and services.